KFOK

Francis S Gabreski Airport

Westhampton Beach, New York, USA
METAR KFOK 191153Z 25004KT 10SM CLR M08/M12 A3018 RMK AO2 SLP219 T10831117 11033 21089 53010 $
Observed Flight Rules
Dec-19 @ 11:53 UTC (11 minutes ago) Visual Flight Rules
Wind Visibility Clouds
250° at 4 knots 10 miles
  • Clear skies
Temperatures Readings
Current -8°C / 18°F
Dewpoint -12°C / 10°F
Humidity 73%
Altimeter 30.18" Hg
Pressure 1021.9 hPa
Elevation 33
METAR KFOK 191153Z 25004KT 10SM CLR M08/M12 A3018 RMK AO2 SLP219 T10831117 11033 21089 53010 $
Observed Flight Rules
Dec-19 @ 11:53 UTC
(11 minutes ago)
VFR
Wind Visibility
250° at 4 knots 10 miles
Clouds
  • Clear skies
Temperature Dewpoint
-8°C / 18°F -12°C / 10°F
Humidity Altimeter Pressure
73% 30.18" Hg 1021.9 hPa